createdAt,value
2023-05-08T00:00:25.530Z,98124.09
2023-05-08T00:03:14.564Z,98130.55
2023-05-08T00:05:43.084Z,98134.52
2023-05-08T00:08:11.767Z,98130.80
2023-05-08T00:10:40.957Z,98132.27
2023-05-08T00:13:09.199Z,98130.33
2023-05-08T00:15:38.744Z,98118.07
2023-05-08T00:18:07.303Z,98117.35
2023-05-08T00:20:35.812Z,98119.66
2023-05-08T00:27:05.234Z,98133.08
2023-05-08T00:29:33.501Z,98143.83
2023-05-08T00:32:03.005Z,98155.44
2023-05-08T00:34:32.105Z,98158.41
2023-05-08T00:37:01.706Z,98161.61
2023-05-08T00:39:30.024Z,98171.54
2023-05-08T00:41:58.569Z,98170.80
2023-05-08T00:44:27.162Z,98158.91
2023-05-08T00:46:55.931Z,98146.23
2023-05-08T00:49:28.611Z,98139.42
2023-05-08T00:51:57.090Z,98141.74
2023-05-08T00:54:28.542Z,98143.92
2023-05-08T00:56:57.854Z,98134.92
2023-05-08T00:59:29.498Z,98129.20
2023-05-08T01:01:57.857Z,98126.44
2023-05-08T01:04:28.488Z,98121.85
2023-05-08T01:06:57.190Z,98119.95
2023-05-08T01:09:25.395Z,98121.10
2023-05-08T01:12:25.282Z,98120.44
2023-05-08T01:15:14.959Z,98114.05
2023-05-08T01:17:48.706Z,98115.66
2023-05-08T01:20:43.665Z,98124.13
2023-05-08T01:23:33.449Z,98121.64
2023-05-08T01:26:22.924Z,98123.77
2023-05-08T01:29:26.121Z,98122.22
2023-05-08T01:32:26.364Z,98117.33
2023-05-08T01:40:28.131Z,98120.23
2023-05-08T01:43:14.359Z,98124.01
2023-05-08T01:45:52.137Z,98126.45
2023-05-08T01:48:35.568Z,98128.17
2023-05-08T01:51:20.005Z,98136.86
2023-05-08T01:53:54.232Z,98143.52
2023-05-08T01:56:28.256Z,98142.73
2023-05-08T01:59:01.222Z,98139.98
2023-05-08T02:01:34.991Z,98131.73
2023-05-08T02:04:09.431Z,98126.27
2023-05-08T02:06:40.488Z,98123.80
2023-05-08T02:09:11.630Z,98125.44
2023-05-08T02:11:44.613Z,98127.98
2023-05-08T02:14:16.059Z,98126.95
2023-05-08T02:16:46.922Z,98129.98
2023-05-08T02:19:17.314Z,98133.91
2023-05-08T02:21:50.721Z,98131.16
2023-05-08T02:24:21.139Z,98129.48
2023-05-08T02:26:56.488Z,98128.66
2023-05-08T02:29:26.805Z,98124.05
2023-05-08T02:31:59.422Z,98122.83
2023-05-08T02:34:31.306Z,98117.39
2023-05-08T02:37:03.101Z,98113.70
2023-05-08T02:39:33.835Z,98111.69
2023-05-08T02:42:02.724Z,98104.47
2023-05-08T02:44:31.514Z,98101.84
2023-05-08T02:47:16.169Z,98102.64
2023-05-08T02:49:59.192Z,98109.10
2023-05-08T02:52:47.152Z,98109.61
2023-05-08T02:55:31.479Z,98105.73
2023-05-08T02:58:25.559Z,98106.02
2023-05-08T03:01:23.000Z,98110.55
2023-05-08T03:04:16.503Z,98119.59
2023-05-08T03:06:50.079Z,98121.77
2023-05-08T03:09:26.757Z,98115.42
2023-05-08T03:12:10.918Z,98113.09
2023-05-08T03:14:47.685Z,98121.19
2023-05-08T03:17:19.224Z,98125.41
2023-05-08T03:19:55.802Z,98128.29
2023-05-08T03:22:44.351Z,98134.36
2023-05-08T03:25:17.235Z,98127.73
2023-05-08T03:27:48.676Z,98111.44
2023-05-08T03:30:21.870Z,98115.23
2023-05-08T03:33:04.293Z,98122.68
2023-05-08T03:35:37.884Z,98120.10
2023-05-08T03:38:08.709Z,98115.95
2023-05-08T03:40:39.439Z,98114.24
2023-05-08T03:43:10.282Z,98110.14
2023-05-08T03:45:42.152Z,98099.02
2023-05-08T03:48:16.035Z,98093.95
2023-05-08T03:50:45.278Z,98095.27
2023-05-08T03:53:16.588Z,98099.57
2023-05-08T03:55:44.983Z,98110.69
2023-05-08T03:58:34.162Z,98111.20
2023-05-08T04:01:13.169Z,98098.70
2023-05-08T04:03:48.881Z,98110.43
2023-05-08T04:06:42.144Z,98113.14
2023-05-08T04:09:36.225Z,98121.18
2023-05-08T04:12:39.311Z,98118.29
2023-05-08T04:15:20.580Z,98123.86
2023-05-08T04:18:05.306Z,98135.85
2023-05-08T04:20:35.937Z,98139.96
2023-05-08T04:23:08.009Z,98139.36
2023-05-08T04:25:40.467Z,98140.33
2023-05-08T04:28:12.079Z,98144.21
2023-05-08T04:30:43.568Z,98154.35
2023-05-08T04:33:16.272Z,98155.27
2023-05-08T04:35:46.574Z,98148.02
2023-05-08T04:38:15.154Z,98148.01
2023-05-08T04:42:04.536Z,98149.79
2023-05-08T04:44:35.479Z,98150.56
2023-05-08T04:47:04.288Z,98152.73
2023-05-08T04:49:32.846Z,98151.23
2023-05-08T04:52:01.380Z,98155.92
2023-05-08T04:54:30.836Z,98150.55
2023-05-08T04:56:59.514Z,98150.79
2023-05-08T04:59:29.850Z,98149.48
2023-05-08T05:02:03.199Z,98151.60
2023-05-08T05:04:59.380Z,98154.13
2023-05-08T05:07:28.444Z,98155.77
2023-05-08T05:09:57.240Z,98160.17
2023-05-08T05:12:25.727Z,98160.73
2023-05-08T05:14:54.082Z,98160.42
2023-05-08T05:17:22.519Z,98161.77
2023-05-08T05:19:53.332Z,98163.00
2023-05-08T05:22:24.661Z,98163.48
2023-05-08T05:24:57.367Z,98166.87
2023-05-08T05:27:54.926Z,98170.98
2023-05-08T05:30:24.096Z,98173.48
2023-05-08T05:32:53.092Z,98176.15
2023-05-08T05:35:21.889Z,98180.88
2023-05-08T05:37:52.096Z,98183.41
2023-05-08T05:41:35.494Z,98188.28
2023-05-08T05:44:04.430Z,98186.10
2023-05-08T05:46:34.573Z,98188.04
2023-05-08T05:49:04.661Z,98191.13
2023-05-08T05:51:34.668Z,98195.35
2023-05-08T05:54:03.051Z,98195.55
2023-05-08T05:56:34.261Z,98190.30
2023-05-08T05:59:02.891Z,98189.16
2023-05-08T06:01:32.466Z,98193.26
2023-05-08T06:04:27.973Z,98188.50
2023-05-08T06:06:57.982Z,98185.17
2023-05-08T06:09:27.312Z,98179.92
2023-05-08T06:11:55.802Z,98176.98
2023-05-08T06:14:25.213Z,98175.80
2023-05-08T06:16:53.696Z,98169.56
2023-05-08T06:19:24.550Z,98173.31
2023-05-08T06:21:52.891Z,98172.80
2023-05-08T06:24:22.293Z,98171.04
2023-05-08T06:26:50.368Z,98176.14
2023-05-08T06:29:18.743Z,98172.65
2023-05-08T06:31:47.330Z,98171.55
2023-05-08T06:34:15.507Z,98171.09
2023-05-08T06:36:43.575Z,98177.45
2023-05-08T06:39:36.433Z,98177.63
2023-05-08T06:42:08.222Z,98177.78
2023-05-08T06:44:42.805Z,98183.55
2023-05-08T06:47:11.704Z,98191.82
2023-05-08T06:49:42.939Z,98193.99
2023-05-08T06:56:18.684Z,98204.73
2023-05-08T06:58:56.581Z,98209.40
2023-05-08T07:01:35.964Z,98207.21
2023-05-08T07:08:38.352Z,98216.67
2023-05-08T07:11:06.465Z,98219.10
2023-05-08T07:13:34.686Z,98224.39
2023-05-08T07:16:03.927Z,98229.16
2023-05-08T07:24:15.625Z,98241.38
2023-05-08T07:26:44.020Z,98248.95
2023-05-08T07:29:14.185Z,98250.47
2023-05-08T07:31:42.587Z,98256.14
2023-05-08T07:34:10.866Z,98264.62
2023-05-08T07:36:40.997Z,98269.77
2023-05-08T07:39:09.681Z,98273.79
2023-05-08T07:41:39.325Z,98273.25
2023-05-08T07:44:07.808Z,98276.16
2023-05-08T07:46:38.397Z,98277.69
2023-05-08T07:49:07.307Z,98276.16
2023-05-08T07:51:35.654Z,98276.05
2023-05-08T07:54:03.776Z,98277.60
2023-05-08T07:56:32.034Z,98279.11
2023-05-08T07:59:00.591Z,98277.33
2023-05-08T08:01:29.032Z,98275.56
2023-05-08T08:03:57.424Z,98273.55
2023-05-08T08:06:27.254Z,98275.73
2023-05-08T08:08:55.844Z,98279.67
2023-05-08T08:11:24.321Z,98281.73
2023-05-08T08:13:52.694Z,98279.33
2023-05-08T08:16:47.827Z,98278.71
2023-05-08T08:19:16.052Z,98282.45
2023-05-08T08:21:46.813Z,98283.59
2023-05-08T08:24:15.189Z,98281.65
2023-05-08T08:26:43.687Z,98285.09
2023-05-08T08:29:14.093Z,98283.98
2023-05-08T08:31:42.872Z,98282.51
2023-05-08T08:34:11.987Z,98282.23
2023-05-08T08:36:41.691Z,98283.34
2023-05-08T08:39:14.743Z,98291.11
2023-05-08T08:41:46.938Z,98291.98
2023-05-08T08:44:15.226Z,98295.90
2023-05-08T08:46:53.551Z,98295.73
2023-05-08T08:49:32.714Z,98295.28
2023-05-08T08:52:12.303Z,98298.09
2023-05-08T08:54:47.238Z,98292.41
2023-05-08T08:58:02.326Z,98288.53
2023-05-08T09:00:33.652Z,98293.44
2023-05-08T09:03:02.851Z,98294.59
2023-05-08T09:05:32.064Z,98289.98
2023-05-08T09:08:01.191Z,98288.29
2023-05-08T09:10:29.619Z,98290.41
2023-05-08T09:12:58.044Z,98290.22
2023-05-08T09:15:26.586Z,98287.52
2023-05-08T09:17:55.097Z,98287.70
2023-05-08T09:20:23.967Z,98292.97
2023-05-08T09:22:55.109Z,98291.16
2023-05-08T09:25:24.091Z,98288.95
2023-05-08T09:27:52.383Z,98291.38
2023-05-08T09:30:20.730Z,98294.61
2023-05-08T09:32:50.658Z,98296.64
2023-05-08T09:35:18.823Z,98299.30
2023-05-08T09:37:48.860Z,98295.03
2023-05-08T09:40:21.130Z,98295.45
2023-05-08T09:42:51.637Z,98297.45
2023-05-08T09:45:46.141Z,98297.91
2023-05-08T09:48:14.509Z,98293.35
2023-05-08T09:50:43.722Z,98294.36
2023-05-08T09:53:12.245Z,98293.80
2023-05-08T09:55:49.537Z,98293.80
2023-05-08T09:58:24.605Z,98296.75
2023-05-08T10:00:52.928Z,98295.57
2023-05-08T10:03:22.645Z,98295.36
2023-05-08T10:05:52.101Z,98288.42
2023-05-08T10:08:40.328Z,98287.09
2023-05-08T10:11:22.747Z,98283.35
2023-05-08T10:13:51.229Z,98283.74
2023-05-08T10:16:22.903Z,98282.67
2023-05-08T10:18:57.695Z,98280.38
2023-05-08T10:21:36.737Z,98286.36
2023-05-08T10:24:15.178Z,98287.74
2023-05-08T10:27:05.058Z,98290.75
2023-05-08T10:29:48.571Z,98290.98
2023-05-08T10:32:20.239Z,98288.63
2023-05-08T10:35:01.043Z,98294.10
2023-05-08T10:37:34.383Z,98300.06
2023-05-08T10:40:06.550Z,98301.48
2023-05-08T10:42:38.822Z,98303.23
2023-05-08T10:45:09.867Z,98299.15
2023-05-08T10:48:20.137Z,98299.14
2023-05-08T10:50:52.285Z,98307.64
2023-05-08T10:53:45.430Z,98310.75
2023-05-08T10:56:14.023Z,98294.02
2023-05-08T10:58:42.620Z,98295.21
2023-05-08T11:01:14.316Z,98310.48
2023-05-08T11:03:47.471Z,98313.77
2023-05-08T11:06:16.065Z,98315.71
2023-05-08T11:08:55.524Z,98313.77
2023-05-08T11:11:32.856Z,98309.52
2023-05-08T11:14:11.819Z,98307.72
2023-05-08T11:16:58.868Z,98307.34
2023-05-08T11:19:28.864Z,98301.45
2023-05-08T11:22:16.353Z,98294.02
2023-05-08T11:25:11.256Z,98294.70
2023-05-08T11:27:48.748Z,98295.91
2023-05-08T11:30:37.746Z,98297.80
2023-05-08T11:33:07.440Z,98297.65
2023-05-08T11:40:54.869Z,98313.71
2023-05-08T11:43:37.986Z,98317.44
2023-05-08T11:46:17.697Z,98318.43
2023-05-08T11:48:46.512Z,98314.90
2023-05-08T11:51:21.755Z,98311.52
2023-05-08T11:53:50.340Z,98313.42
2023-05-08T11:56:19.736Z,98317.57
2023-05-08T11:58:48.216Z,98313.73
2023-05-08T12:01:21.149Z,98312.08
2023-05-08T12:03:49.754Z,98310.55
2023-05-08T12:06:19.757Z,98308.33
2023-05-08T12:08:48.024Z,98310.92
2023-05-08T12:11:27.309Z,98308.02
2023-05-08T12:13:55.669Z,98305.50
2023-05-08T12:16:45.619Z,98304.58
2023-05-08T12:19:14.732Z,98301.53
2023-05-08T12:21:49.595Z,98298.21
2023-05-08T12:24:26.365Z,98295.68
2023-05-08T12:26:57.089Z,98290.11
2023-05-08T12:29:28.049Z,98290.37
2023-05-08T12:37:07.519Z,98290.91
2023-05-08T12:39:38.062Z,98294.13
2023-05-08T12:42:06.443Z,98293.64
2023-05-08T12:44:34.793Z,98291.09
2023-05-08T12:47:07.375Z,98289.77
2023-05-08T12:49:38.312Z,98292.58
2023-05-08T12:52:09.659Z,98295.60
2023-05-08T12:54:49.544Z,98289.48
2023-05-08T12:57:23.797Z,98286.30
2023-05-08T13:00:06.500Z,98284.80
2023-05-08T13:02:39.319Z,98284.65
2023-05-08T13:05:19.164Z,98279.20
2023-05-08T13:07:47.617Z,98283.85
2023-05-08T13:10:21.401Z,98284.52
2023-05-08T13:12:52.538Z,98284.06
2023-05-08T13:15:25.160Z,98286.20
2023-05-08T13:17:53.610Z,98288.53
2023-05-08T13:20:22.131Z,98284.52
2023-05-08T13:22:50.606Z,98288.29
2023-05-08T13:25:23.693Z,98292.10
2023-05-08T13:27:52.177Z,98296.92
2023-05-08T13:35:10.557Z,98298.59
2023-05-08T13:37:38.780Z,98300.73
2023-05-08T13:40:10.246Z,98300.27
2023-05-08T13:42:39.061Z,98301.54
2023-05-08T13:45:08.884Z,98303.67
2023-05-08T13:47:37.617Z,98308.14
2023-05-08T13:50:11.064Z,98312.94
2023-05-08T13:52:41.112Z,98306.17
2023-05-08T13:55:13.802Z,98309.73
2023-05-08T13:57:42.541Z,98315.15
2023-05-08T14:00:40.027Z,98319.42
2023-05-08T14:03:09.863Z,98319.14
2023-05-08T14:05:39.010Z,98320.03
2023-05-08T14:08:07.279Z,98317.85
2023-05-08T14:10:35.609Z,98321.26
2023-05-08T14:13:03.858Z,98326.52
2023-05-08T14:15:36.834Z,98323.15
2023-05-08T14:18:06.574Z,98322.05
2023-05-08T14:20:34.805Z,98324.92
2023-05-08T14:23:02.862Z,98324.04
2023-05-08T14:25:31.557Z,98327.63
2023-05-08T14:28:00.046Z,98328.86
2023-05-08T14:35:36.969Z,98331.55
2023-05-08T14:38:05.429Z,98327.42
2023-05-08T14:40:33.599Z,98330.06
2023-05-08T14:43:02.320Z,98335.79
2023-05-08T14:45:30.866Z,98344.33
2023-05-08T14:47:59.165Z,98349.05
2023-05-08T14:50:28.341Z,98348.52
2023-05-08T14:52:56.516Z,98352.39
2023-05-08T14:55:25.128Z,98353.30
2023-05-08T14:57:53.735Z,98353.54
2023-05-08T15:00:22.468Z,98353.71
2023-05-08T15:02:51.535Z,98352.86
2023-05-08T15:05:21.112Z,98349.98
2023-05-08T15:07:50.881Z,98348.21
2023-05-08T15:10:19.354Z,98357.99
2023-05-08T15:12:47.592Z,98361.27
2023-05-08T15:15:16.748Z,98362.27
2023-05-08T15:17:46.205Z,98365.06
2023-05-08T15:20:14.716Z,98362.59
2023-05-08T15:22:43.204Z,98361.45
2023-05-08T15:25:12.370Z,98360.39
2023-05-08T15:27:42.199Z,98363.59
2023-05-08T15:30:13.052Z,98365.36
2023-05-08T15:32:45.174Z,98372.09
2023-05-08T15:35:14.215Z,98375.73
2023-05-08T15:37:43.027Z,98371.96
2023-05-08T15:40:11.865Z,98371.70
2023-05-08T15:42:40.258Z,98371.95
2023-05-08T15:45:08.927Z,98371.37
2023-05-08T15:47:37.403Z,98378.64
2023-05-08T15:50:08.252Z,98378.50
2023-05-08T15:52:36.516Z,98372.54
2023-05-08T15:55:06.341Z,98370.98
2023-05-08T15:57:34.721Z,98362.63
2023-05-08T16:00:03.110Z,98359.73
2023-05-08T16:02:34.110Z,98360.36
2023-05-08T16:05:04.047Z,98364.45
2023-05-08T16:07:32.338Z,98368.73
2023-05-08T16:10:00.795Z,98372.72
2023-05-08T16:12:29.180Z,98374.34
2023-05-08T16:15:01.654Z,98375.73
2023-05-08T16:17:30.665Z,98377.66
2023-05-08T16:20:03.029Z,98377.53
2023-05-08T16:22:31.503Z,98383.27
2023-05-08T16:24:59.980Z,98380.27
2023-05-08T16:27:31.342Z,98385.77
2023-05-08T16:30:00.136Z,98389.14
2023-05-08T16:32:29.069Z,98383.04
2023-05-08T16:34:57.602Z,98385.94
2023-05-08T16:37:26.104Z,98391.29
2023-05-08T16:39:54.244Z,98397.80
2023-05-08T16:42:22.722Z,98402.84
2023-05-08T16:44:51.409Z,98405.63
2023-05-08T16:47:19.756Z,98404.95
2023-05-08T16:49:48.067Z,98409.08
2023-05-08T16:52:16.236Z,98411.54
2023-05-08T16:54:45.425Z,98413.11
2023-05-08T16:57:13.508Z,98415.30
2023-05-08T16:59:43.384Z,98416.20
2023-05-08T17:02:12.372Z,98419.79
2023-05-08T17:05:30.768Z,98422.36
2023-05-08T17:07:58.943Z,98427.17
2023-05-08T17:10:27.615Z,98431.30
2023-05-08T17:12:56.813Z,98431.00
2023-05-08T17:15:28.092Z,98433.84
2023-05-08T17:17:56.880Z,98437.58
2023-05-08T17:20:25.320Z,98442.80
2023-05-08T17:22:55.373Z,98445.36
2023-05-08T17:25:24.345Z,98446.05
2023-05-08T17:27:52.804Z,98451.54
2023-05-08T17:30:21.103Z,98453.96
2023-05-08T17:32:52.380Z,98457.11
2023-05-08T17:35:21.030Z,98455.83
2023-05-08T17:37:50.924Z,98458.04
2023-05-08T17:40:22.059Z,98456.79
2023-05-08T17:42:50.284Z,98457.81
2023-05-08T17:45:19.038Z,98462.73
2023-05-08T17:47:47.851Z,98468.61
2023-05-08T17:50:16.405Z,98467.08
2023-05-08T17:52:44.527Z,98467.94
2023-05-08T17:55:13.258Z,98470.88
2023-05-08T17:57:41.431Z,98476.55
2023-05-08T18:00:10.349Z,98481.42
2023-05-08T18:02:59.895Z,98481.04
2023-05-08T18:05:28.478Z,98478.05
2023-05-08T18:07:57.882Z,98481.14
2023-05-08T18:10:28.000Z,98483.88
2023-05-08T18:12:57.468Z,98482.61
2023-05-08T18:15:25.983Z,98491.34
2023-05-08T18:17:54.470Z,98497.29
2023-05-08T18:20:25.921Z,98500.55
2023-05-08T18:22:54.287Z,98500.77
2023-05-08T18:25:22.394Z,98500.45
2023-05-08T18:27:53.504Z,98506.31
2023-05-08T18:30:21.679Z,98510.21
2023-05-08T18:32:51.002Z,98516.30
2023-05-08T18:35:19.878Z,98518.02
2023-05-08T18:37:48.291Z,98517.63
2023-05-08T18:40:16.658Z,98522.27
2023-05-08T18:42:47.310Z,98522.64
2023-05-08T18:45:15.836Z,98522.54
2023-05-08T18:47:44.054Z,98522.31
2023-05-08T18:50:14.635Z,98523.61
2023-05-08T18:53:02.885Z,98527.47
2023-05-08T18:55:31.465Z,98530.27
2023-05-08T18:57:59.745Z,98529.04
2023-05-08T19:00:27.853Z,98535.33
2023-05-08T19:02:56.431Z,98541.67
2023-05-08T19:05:24.977Z,98550.34
2023-05-08T19:07:53.417Z,98551.74
2023-05-08T19:10:21.942Z,98549.56
2023-05-08T19:12:51.643Z,98547.77
2023-05-08T19:15:19.950Z,98549.19
2023-05-08T19:17:48.275Z,98549.65
2023-05-08T19:20:18.344Z,98550.07
2023-05-08T19:22:47.717Z,98552.62
2023-05-08T19:25:16.523Z,98560.38
2023-05-08T19:27:44.989Z,98562.77
2023-05-08T19:30:13.816Z,98564.66
2023-05-08T19:32:42.658Z,98565.60
2023-05-08T19:35:11.344Z,98565.83
2023-05-08T19:37:39.626Z,98570.95
2023-05-08T19:40:09.831Z,98572.88
2023-05-08T19:42:38.628Z,98571.15
2023-05-08T19:45:09.056Z,98572.02
2023-05-08T19:47:38.854Z,98578.19
2023-05-08T19:50:12.505Z,98575.64
2023-05-08T19:52:41.333Z,98578.38
2023-05-08T19:59:17.139Z,98574.33
2023-05-08T20:01:45.734Z,98572.25
2023-05-08T20:04:13.993Z,98564.83
2023-05-08T20:06:45.030Z,98572.39
2023-05-08T20:09:14.023Z,98569.97
2023-05-08T20:11:42.807Z,98572.08
2023-05-08T20:14:10.901Z,98569.87
2023-05-08T20:16:39.105Z,98570.44
2023-05-08T20:19:10.100Z,98572.73
2023-05-08T20:21:38.477Z,98572.57
2023-05-08T20:24:07.164Z,98572.52
2023-05-08T20:26:35.449Z,98574.64
2023-05-08T20:29:03.911Z,98580.30
2023-05-08T20:31:36.224Z,98588.98
2023-05-08T20:34:04.461Z,98593.79
2023-05-08T20:36:33.039Z,98597.33
2023-05-08T20:39:01.625Z,98595.73
2023-05-08T20:41:54.702Z,98592.50
2023-05-08T20:44:22.815Z,98593.88
2023-05-08T20:46:52.077Z,98598.58
2023-05-08T20:49:20.835Z,98598.51
2023-05-08T20:51:49.315Z,98603.52
2023-05-08T20:54:17.786Z,98601.10
2023-05-08T20:56:46.375Z,98602.50
2023-05-08T20:59:22.034Z,98601.91
2023-05-08T21:01:51.287Z,98602.55
2023-05-08T21:04:19.523Z,98600.35
2023-05-08T21:06:48.593Z,98597.94
2023-05-08T21:09:18.605Z,98599.40
2023-05-08T21:11:47.292Z,98597.92
2023-05-08T21:14:16.282Z,98598.92
2023-05-08T21:16:44.717Z,98601.08
2023-05-08T21:19:17.634Z,98598.67
2023-05-08T21:21:48.142Z,98594.72
2023-05-08T21:24:16.660Z,98594.92
2023-05-08T21:26:45.350Z,98596.14
2023-05-08T21:29:13.540Z,98599.27
2023-05-08T21:31:43.496Z,98599.21
2023-05-08T21:34:12.528Z,98597.13
2023-05-08T21:36:41.006Z,98595.77
2023-05-08T21:39:09.679Z,98597.33
2023-05-08T21:41:38.481Z,98599.59
2023-05-08T21:44:06.670Z,98600.55
2023-05-08T21:46:35.255Z,98599.27
2023-05-08T21:49:04.704Z,98598.54
2023-05-08T21:51:33.225Z,98597.73
2023-05-08T21:54:01.795Z,98593.53
2023-05-08T21:56:30.087Z,98596.27
2023-05-08T21:58:58.359Z,98597.54
2023-05-08T22:01:26.745Z,98595.16
2023-05-08T22:03:55.547Z,98593.56
2023-05-08T22:06:25.750Z,98593.98
2023-05-08T22:08:54.215Z,98596.34
2023-05-08T22:11:22.703Z,98595.48
2023-05-08T22:13:51.082Z,98590.42
2023-05-08T22:16:19.361Z,98589.92
2023-05-08T22:18:48.186Z,98591.51
2023-05-08T22:21:16.450Z,98588.11
2023-05-08T22:23:44.795Z,98589.61
2023-05-08T22:26:13.488Z,98591.13
2023-05-08T22:28:42.469Z,98592.02
2023-05-08T22:31:10.755Z,98591.50
2023-05-08T22:33:39.438Z,98592.02
2023-05-08T22:36:34.517Z,98591.25
2023-05-08T22:39:03.067Z,98590.26
2023-05-08T22:41:31.390Z,98590.39
2023-05-08T22:43:59.975Z,98586.76
2023-05-08T22:46:28.909Z,98589.01
2023-05-08T22:48:57.549Z,98589.56
2023-05-08T22:51:25.670Z,98590.05
2023-05-08T22:54:19.536Z,98591.30
2023-05-08T22:56:49.203Z,98588.63
2023-05-08T22:59:17.893Z,98587.63
2023-05-08T23:01:46.404Z,98584.20
2023-05-08T23:04:14.756Z,98583.31
2023-05-08T23:06:43.126Z,98582.36
2023-05-08T23:09:11.421Z,98585.38
2023-05-08T23:11:39.684Z,98589.05
2023-05-08T23:14:07.949Z,98588.56
2023-05-08T23:16:36.499Z,98585.48
2023-05-08T23:19:04.907Z,98582.52
2023-05-08T23:21:35.024Z,98582.48
2023-05-08T23:24:03.312Z,98582.77
2023-05-08T23:26:32.816Z,98583.63
2023-05-08T23:29:01.497Z,98584.94
2023-05-08T23:31:30.023Z,98578.02
2023-05-08T23:33:58.757Z,98576.08
2023-05-08T23:36:27.127Z,98572.92
2023-05-08T23:38:55.311Z,98569.95
2023-05-08T23:41:24.318Z,98571.83
2023-05-08T23:43:52.786Z,98574.20
2023-05-08T23:46:22.732Z,98577.49
2023-05-08T23:48:51.335Z,98575.18
2023-05-08T23:51:21.914Z,98568.90
2023-05-08T23:53:51.419Z,98564.83
2023-05-08T23:56:19.700Z,98561.39
2023-05-08T23:58:48.411Z,98560.84
